sensor_id;sensor_type;location;lat;lon;timestamp;pressure;altitude;pressure_sealevel;temperature;humidity
59194;BME280;44967;48.598;15.650;2023-08-08T00:01:54;98257.50;;;13.23;66.92
59194;BME280;44967;48.598;15.650;2023-08-08T00:04:20;98253.78;;;13.27;66.72
59194;BME280;44967;48.598;15.650;2023-08-08T00:06:45;98259.78;;;13.08;68.26
59194;BME280;44967;48.598;15.650;2023-08-08T00:09:11;98248.03;;;13.15;66.98
59194;BME280;44967;48.598;15.650;2023-08-08T00:11:36;98246.19;;;13.17;67.53
59194;BME280;44967;48.598;15.650;2023-08-08T00:14:02;98250.19;;;13.06;67.63
59194;BME280;44967;48.598;15.650;2023-08-08T00:16:28;98255.81;;;13.20;67.92
59194;BME280;44967;48.598;15.650;2023-08-08T00:18:54;98248.03;;;13.15;67.74
59194;BME280;44967;48.598;15.650;2023-08-08T00:21:20;98236.38;;;13.19;67.63
59194;BME280;44967;48.598;15.650;2023-08-08T00:23:46;98247.84;;;13.20;66.96
59194;BME280;44967;48.598;15.650;2023-08-08T00:26:12;98259.41;;;13.19;67.77
59194;BME280;44967;48.598;15.650;2023-08-08T00:28:37;98258.09;;;13.07;67.99
59194;BME280;44967;48.598;15.650;2023-08-08T00:31:03;98254.28;;;13.14;67.47
59194;BME280;44967;48.598;15.650;2023-08-08T00:33:29;98260.84;;;13.04;68.43
59194;BME280;44967;48.598;15.650;2023-08-08T00:35:54;98264.38;;;13.05;68.65
59194;BME280;44967;48.598;15.650;2023-08-08T00:38:20;98265.97;;;13.10;68.19
59194;BME280;44967;48.598;15.650;2023-08-08T00:40:45;98263.22;;;13.12;67.75
59194;BME280;44967;48.598;15.650;2023-08-08T00:43:12;98262.25;;;13.14;68.15
59194;BME280;44967;48.598;15.650;2023-08-08T00:45:38;98266.81;;;13.11;67.97
59194;BME280;44967;48.598;15.650;2023-08-08T00:48:05;98263.13;;;13.15;67.76
59194;BME280;44967;48.598;15.650;2023-08-08T00:50:31;98264.81;;;13.16;68.51
59194;BME280;44967;48.598;15.650;2023-08-08T00:52:57;98268.41;;;13.15;67.69
59194;BME280;44967;48.598;15.650;2023-08-08T00:55:23;98273.91;;;13.10;68.23
59194;BME280;44967;48.598;15.650;2023-08-08T00:57:49;98269.50;;;13.09;68.39
59194;BME280;44967;48.598;15.650;2023-08-08T01:00:14;98277.50;;;13.08;68.25
59194;BME280;44967;48.598;15.650;2023-08-08T01:02:41;98267.09;;;13.03;68.65
59194;BME280;44967;48.598;15.650;2023-08-08T01:05:07;98273.69;;;12.93;69.37
59194;BME280;44967;48.598;15.650;2023-08-08T01:10:10;98273.47;;;12.99;69.20
59194;BME280;44967;48.598;15.650;2023-08-08T01:12:59;98281.66;;;12.93;69.30
59194;BME280;44967;48.598;15.650;2023-08-08T01:15:26;98284.56;;;12.87;69.50
59194;BME280;44967;48.598;15.650;2023-08-08T01:17:54;98273.22;;;12.84;70.06
59194;BME280;44967;48.598;15.650;2023-08-08T01:20:20;98279.34;;;12.84;70.37
59194;BME280;44967;48.598;15.650;2023-08-08T01:25:36;98284.16;;;12.74;70.06
59194;BME280;44967;48.598;15.650;2023-08-08T01:28:03;98272.13;;;12.66;70.90
59194;BME280;44967;48.598;15.650;2023-08-08T01:30:31;98282.03;;;12.61;71.48
59194;BME280;44967;48.598;15.650;2023-08-08T01:32:56;98279.41;;;12.61;71.35
59194;BME280;44967;48.598;15.650;2023-08-08T01:35:23;98276.13;;;12.54;70.95
59194;BME280;44967;48.598;15.650;2023-08-08T01:37:53;98275.25;;;12.54;71.19
59194;BME280;44967;48.598;15.650;2023-08-08T01:40:20;98275.13;;;12.57;71.44
59194;BME280;44967;48.598;15.650;2023-08-08T01:42:48;98280.72;;;12.49;71.79
59194;BME280;44967;48.598;15.650;2023-08-08T01:45:17;98274.97;;;12.61;72.10
59194;BME280;44967;48.598;15.650;2023-08-08T01:47:49;98274.25;;;12.56;71.58
59194;BME280;44967;48.598;15.650;2023-08-08T01:50:15;98273.53;;;12.53;71.80
59194;BME280;44967;48.598;15.650;2023-08-08T01:52:40;98281.00;;;12.65;71.13
59194;BME280;44967;48.598;15.650;2023-08-08T01:55:07;98281.38;;;12.56;71.35
59194;BME280;44967;48.598;15.650;2023-08-08T01:57:33;98272.19;;;12.64;71.45
59194;BME280;44967;48.598;15.650;2023-08-08T01:59:58;98280.44;;;12.57;71.83
59194;BME280;44967;48.598;15.650;2023-08-08T02:02:24;98273.13;;;12.63;71.75
59194;BME280;44967;48.598;15.650;2023-08-08T02:04:50;98272.38;;;12.60;71.77
59194;BME280;44967;48.598;15.650;2023-08-08T02:07:15;98269.09;;;12.53;71.74
59194;BME280;44967;48.598;15.650;2023-08-08T02:09:41;98275.22;;;12.55;71.75
59194;BME280;44967;48.598;15.650;2023-08-08T02:12:07;98271.56;;;12.58;72.11
59194;BME280;44967;48.598;15.650;2023-08-08T02:14:33;98281.81;;;12.67;71.15
59194;BME280;44967;48.598;15.650;2023-08-08T02:16:58;98280.69;;;12.51;72.30
59194;BME280;44967;48.598;15.650;2023-08-08T02:19:24;98281.84;;;12.44;72.54
59194;BME280;44967;48.598;15.650;2023-08-08T02:21:50;98278.44;;;12.40;72.74
59194;BME280;44967;48.598;15.650;2023-08-08T02:24:15;98281.19;;;12.37;72.89
59194;BME280;44967;48.598;15.650;2023-08-08T02:26:41;98283.81;;;12.39;72.76
59194;BME280;44967;48.598;15.650;2023-08-08T02:29:06;98282.97;;;12.37;72.95
59194;BME280;44967;48.598;15.650;2023-08-08T02:31:32;98289.69;;;12.23;73.37
59194;BME280;44967;48.598;15.650;2023-08-08T02:33:58;98277.19;;;12.27;73.79
59194;BME280;44967;48.598;15.650;2023-08-08T02:36:23;98278.03;;;12.27;73.47
59194;BME280;44967;48.598;15.650;2023-08-08T02:38:49;98279.00;;;12.25;73.65
59194;BME280;44967;48.598;15.650;2023-08-08T02:41:19;98280.22;;;12.16;74.31
59194;BME280;44967;48.598;15.650;2023-08-08T02:43:46;98275.84;;;12.15;73.67
59194;BME280;44967;48.598;15.650;2023-08-08T02:46:12;98267.00;;;12.16;73.84
59194;BME280;44967;48.598;15.650;2023-08-08T02:48:37;98273.91;;;12.20;74.67
59194;BME280;44967;48.598;15.650;2023-08-08T02:51:03;98269.53;;;12.19;73.44
59194;BME280;44967;48.598;15.650;2023-08-08T02:53:28;98258.81;;;12.22;73.79
59194;BME280;44967;48.598;15.650;2023-08-08T02:55:54;98267.56;;;12.24;73.86
59194;BME280;44967;48.598;15.650;2023-08-08T02:58:20;98273.38;;;12.34;73.44
59194;BME280;44967;48.598;15.650;2023-08-08T03:00:45;98266.16;;;12.38;73.41
59194;BME280;44967;48.598;15.650;2023-08-08T03:03:11;98258.28;;;12.36;73.32
59194;BME280;44967;48.598;15.650;2023-08-08T03:05:37;98266.84;;;12.43;72.87
59194;BME280;44967;48.598;15.650;2023-08-08T03:08:02;98275.72;;;12.42;72.99
59194;BME280;44967;48.598;15.650;2023-08-08T03:10:29;98276.41;;;12.47;72.35
59194;BME280;44967;48.598;15.650;2023-08-08T03:12:54;98277.41;;;12.44;72.22
59194;BME280;44967;48.598;15.650;2023-08-08T03:15:20;98275.72;;;12.42;73.12
59194;BME280;44967;48.598;15.650;2023-08-08T03:17:46;98270.56;;;12.39;72.24
59194;BME280;44967;48.598;15.650;2023-08-08T03:20:11;98268.06;;;12.34;73.20
59194;BME280;44967;48.598;15.650;2023-08-08T03:22:37;98272.88;;;12.24;73.07
59194;BME280;44967;48.598;15.650;2023-08-08T03:25:03;98275.72;;;12.18;74.29
59194;BME280;44967;48.598;15.650;2023-08-08T03:27:32;98282.88;;;12.16;74.77
59194;BME280;44967;48.598;15.650;2023-08-08T03:29:57;98277.09;;;12.05;74.68
59194;BME280;44967;48.598;15.650;2023-08-08T03:32:23;98273.03;;;11.97;75.37
59194;BME280;44967;48.598;15.650;2023-08-08T03:34:49;98277.34;;;11.99;75.21
59194;BME280;44967;48.598;15.650;2023-08-08T03:37:15;98267.81;;;11.94;75.03
59194;BME280;44967;48.598;15.650;2023-08-08T03:39:40;98266.16;;;11.91;75.92
59194;BME280;44967;48.598;15.650;2023-08-08T03:42:06;98273.06;;;11.95;75.71
59194;BME280;44967;48.598;15.650;2023-08-08T03:44:32;98272.16;;;11.96;75.71
59194;BME280;44967;48.598;15.650;2023-08-08T03:46:58;98273.66;;;12.03;75.51
59194;BME280;44967;48.598;15.650;2023-08-08T03:49:23;98279.84;;;12.02;75.78
59194;BME280;44967;48.598;15.650;2023-08-08T03:51:49;98271.91;;;12.02;75.48
59194;BME280;44967;48.598;15.650;2023-08-08T03:54:15;98277.16;;;12.04;75.31
59194;BME280;44967;48.598;15.650;2023-08-08T03:56:40;98282.31;;;12.08;75.36
59194;BME280;44967;48.598;15.650;2023-08-08T03:59:06;98278.81;;;12.06;75.83
59194;BME280;44967;48.598;15.650;2023-08-08T04:01:33;98278.63;;;12.12;75.44
59194;BME280;44967;48.598;15.650;2023-08-08T04:03:58;98285.53;;;12.16;75.66
59194;BME280;44967;48.598;15.650;2023-08-08T04:06:24;98278.63;;;12.12;75.13
59194;BME280;44967;48.598;15.650;2023-08-08T04:08:50;98279.13;;;12.22;75.10
59194;BME280;44967;48.598;15.650;2023-08-08T04:11:16;98286.66;;;12.33;74.41
59194;BME280;44967;48.598;15.650;2023-08-08T04:13:42;98281.16;;;12.39;74.44
59194;BME280;44967;48.598;15.650;2023-08-08T04:16:07;98286.91;;;12.50;74.25
59194;BME280;44967;48.598;15.650;2023-08-08T04:18:33;98283.47;;;12.48;74.09
59194;BME280;44967;48.598;15.650;2023-08-08T04:21:00;98278.59;;;12.59;73.61
59194;BME280;44967;48.598;15.650;2023-08-08T04:23:25;98275.47;;;12.71;72.73
59194;BME280;44967;48.598;15.650;2023-08-08T04:25:52;98279.72;;;12.75;71.93
59194;BME280;44967;48.598;15.650;2023-08-08T04:28:19;98277.88;;;12.77;72.73
59194;BME280;44967;48.598;15.650;2023-08-08T04:30:44;98279.34;;;12.84;71.95
59194;BME280;44967;48.598;15.650;2023-08-08T04:33:10;98286.94;;;12.93;72.21
59194;BME280;44967;48.598;15.650;2023-08-08T04:35:36;98287.03;;;12.92;71.98
59194;BME280;44967;48.598;15.650;2023-08-08T04:38:01;98293.81;;;12.99;71.77
59194;BME280;44967;48.598;15.650;2023-08-08T04:40:27;98282.94;;;13.05;72.49
59194;BME280;44967;48.598;15.650;2023-08-08T04:42:53;98291.22;;;12.97;72.46
59194;BME280;44967;48.598;15.650;2023-08-08T04:45:18;98285.03;;;12.97;72.83
59194;BME280;44967;48.598;15.650;2023-08-08T04:47:44;98290.28;;;12.98;73.01
59194;BME280;44967;48.598;15.650;2023-08-08T04:50:10;98287.28;;;13.07;72.72
59194;BME280;44967;48.598;15.650;2023-08-08T04:52:36;98287.91;;;13.14;72.73
59194;BME280;44967;48.598;15.650;2023-08-08T04:55:02;98294.22;;;13.11;73.20
59194;BME280;44967;48.598;15.650;2023-08-08T04:57:28;98296.03;;;13.09;73.52
59194;BME280;44967;48.598;15.650;2023-08-08T04:59:53;98296.66;;;13.16;73.04
59194;BME280;44967;48.598;15.650;2023-08-08T05:02:19;98305.34;;;13.19;74.03
59194;BME280;44967;48.598;15.650;2023-08-08T05:04:44;98308.22;;;13.15;74.10
59194;BME280;44967;48.598;15.650;2023-08-08T05:07:10;98312.41;;;13.20;74.11
59194;BME280;44967;48.598;15.650;2023-08-08T05:09:36;98310.13;;;13.11;74.96
59194;BME280;44967;48.598;15.650;2023-08-08T05:12:02;98310.66;;;13.19;74.45
59194;BME280;44967;48.598;15.650;2023-08-08T05:14:27;98309.50;;;13.27;74.48
59194;BME280;44967;48.598;15.650;2023-08-08T05:16:53;98305.41;;;13.40;74.58
59194;BME280;44967;48.598;15.650;2023-08-08T05:19:18;98306.09;;;13.45;74.05
59194;BME280;44967;48.598;15.650;2023-08-08T05:21:44;98311.03;;;13.54;73.53
59194;BME280;44967;48.598;15.650;2023-08-08T05:24:10;98307.44;;;13.55;73.95
59194;BME280;44967;48.598;15.650;2023-08-08T05:26:35;98314.88;;;13.67;74.11
59194;BME280;44967;48.598;15.650;2023-08-08T05:29:01;98308.38;;;13.74;71.92
59194;BME280;44967;48.598;15.650;2023-08-08T05:31:26;98310.88;;;13.57;73.48
59194;BME280;44967;48.598;15.650;2023-08-08T05:33:52;98318.97;;;13.54;73.68
59194;BME280;44967;48.598;15.650;2023-08-08T05:36:18;98312.22;;;13.67;71.93
59194;BME280;44967;48.598;15.650;2023-08-08T05:38:43;98317.88;;;13.80;71.70
59194;BME280;44967;48.598;15.650;2023-08-08T05:41:09;98303.19;;;13.91;71.65
59194;BME280;44967;48.598;15.650;2023-08-08T05:43:35;98307.56;;;13.92;72.04
59194;BME280;44967;48.598;15.650;2023-08-08T05:46:02;98311.53;;;14.02;71.08
59194;BME280;44967;48.598;15.650;2023-08-08T05:48:27;98311.34;;;14.07;71.36
59194;BME280;44967;48.598;15.650;2023-08-08T05:50:53;98305.44;;;14.21;70.41
59194;BME280;44967;48.598;15.650;2023-08-08T05:53:19;98307.38;;;14.37;70.06
59194;BME280;44967;48.598;15.650;2023-08-08T05:55:44;98303.75;;;14.38;67.85
59194;BME280;44967;48.598;15.650;2023-08-08T05:58:10;98302.41;;;14.48;67.47
59194;BME280;44967;48.598;15.650;2023-08-08T06:00:36;98309.84;;;14.60;67.11
59194;BME280;44967;48.598;15.650;2023-08-08T06:03:02;98317.59;;;14.65;68.27
59194;BME280;44967;48.598;15.650;2023-08-08T06:05:28;98314.44;;;14.76;66.69
59194;BME280;44967;48.598;15.650;2023-08-08T06:07:54;98328.41;;;14.81;66.49
59194;BME280;44967;48.598;15.650;2023-08-08T06:10:21;98328.03;;;14.88;66.36
59194;BME280;44967;48.598;15.650;2023-08-08T06:12:47;98334.63;;;14.98;65.96
59194;BME280;44967;48.598;15.650;2023-08-08T06:15:13;98336.06;;;15.05;65.92
59194;BME280;44967;48.598;15.650;2023-08-08T06:17:38;98337.63;;;15.09;65.80
59194;BME280;44967;48.598;15.650;2023-08-08T06:20:05;98339.16;;;15.15;65.38
59194;BME280;44967;48.598;15.650;2023-08-08T06:22:32;98337.06;;;15.22;64.79
59194;BME280;44967;48.598;15.650;2023-08-08T06:24:58;98337.84;;;15.24;65.07
59194;BME280;44967;48.598;15.650;2023-08-08T06:27:23;98348.19;;;15.30;64.93
59194;BME280;44967;48.598;15.650;2023-08-08T06:29:49;98341.56;;;15.38;64.17
59194;BME280;44967;48.598;15.650;2023-08-08T06:32:15;98338.69;;;15.43;64.25
59194;BME280;44967;48.598;15.650;2023-08-08T06:34:44;98327.44;;;15.55;65.57
59194;BME280;44967;48.598;15.650;2023-08-08T06:37:10;98333.16;;;15.65;65.08
59194;BME280;44967;48.598;15.650;2023-08-08T06:39:36;98338.91;;;15.74;63.58
59194;BME280;44967;48.598;15.650;2023-08-08T06:42:04;98337.19;;;15.73;62.61
59194;BME280;44967;48.598;15.650;2023-08-08T06:44:32;98340.16;;;15.84;63.24
59194;BME280;44967;48.598;15.650;2023-08-08T06:46:57;98333.72;;;15.88;63.59
59194;BME280;44967;48.598;15.650;2023-08-08T06:49:23;98328.72;;;15.99;63.25
59194;BME280;44967;48.598;15.650;2023-08-08T06:51:49;98344.56;;;16.02;62.95
59194;BME280;44967;48.598;15.650;2023-08-08T06:54:14;98345.81;;;15.95;62.70
59194;BME280;44967;48.598;15.650;2023-08-08T06:56:40;98344.22;;;16.09;62.48
59194;BME280;44967;48.598;15.650;2023-08-08T06:59:05;98342.50;;;16.25;62.22
59194;BME280;44967;48.598;15.650;2023-08-08T07:01:31;98343.66;;;16.36;60.89
59194;BME280;44967;48.598;15.650;2023-08-08T07:03:56;98347.63;;;16.45;61.14
59194;BME280;44967;48.598;15.650;2023-08-08T07:06:22;98342.31;;;16.45;60.63
59194;BME280;44967;48.598;15.650;2023-08-08T07:08:48;98342.31;;;16.45;60.85
59194;BME280;44967;48.598;15.650;2023-08-08T07:11:13;98346.78;;;16.62;60.18
59194;BME280;44967;48.598;15.650;2023-08-08T07:13:39;98337.94;;;16.77;61.17
59194;BME280;44967;48.598;15.650;2023-08-08T07:16:05;98338.63;;;16.80;59.87
59194;BME280;44967;48.598;15.650;2023-08-08T07:18:30;98337.97;;;16.92;60.51
59194;BME280;44967;48.598;15.650;2023-08-08T07:20:56;98327.97;;;17.12;59.75
59194;BME280;44967;48.598;15.650;2023-08-08T07:23:22;98333.75;;;17.20;60.26
59194;BME280;44967;48.598;15.650;2023-08-08T07:25:48;98317.41;;;17.10;58.11
59194;BME280;44967;48.598;15.650;2023-08-08T07:28:14;98328.50;;;17.18;58.61
59194;BME280;44967;48.598;15.650;2023-08-08T07:30:40;98321.94;;;17.08;59.45
59194;BME280;44967;48.598;15.650;2023-08-08T07:33:06;98318.34;;;17.09;58.51
59194;BME280;44967;48.598;15.650;2023-08-08T07:35:34;98331.25;;;17.17;57.99
59194;BME280;44967;48.598;15.650;2023-08-08T07:37:59;98328.75;;;17.29;58.67
59194;BME280;44967;48.598;15.650;2023-08-08T07:40:25;98330.84;;;17.54;56.53
59194;BME280;44967;48.598;15.650;2023-08-08T07:42:51;98330.28;;;17.95;56.23
59194;BME280;44967;48.598;15.650;2023-08-08T07:45:17;98326.13;;;18.19;56.04
59194;BME280;44967;48.598;15.650;2023-08-08T07:47:44;98325.38;;;18.17;56.64
59194;BME280;44967;48.598;15.650;2023-08-08T07:50:09;98325.34;;;18.03;55.18
59194;BME280;44967;48.598;15.650;2023-08-08T07:52:36;98312.22;;;17.84;55.25
59194;BME280;44967;48.598;15.650;2023-08-08T07:55:02;98317.41;;;17.71;56.57
59194;BME280;44967;48.598;15.650;2023-08-08T07:57:29;98315.47;;;17.89;54.66
59194;BME280;44967;48.598;15.650;2023-08-08T07:59:56;98303.75;;;18.06;55.51
59194;BME280;44967;48.598;15.650;2023-08-08T08:02:22;98310.97;;;18.19;55.20
59194;BME280;44967;48.598;15.650;2023-08-08T08:04:47;98318.91;;;18.21;53.96
59194;BME280;44967;48.598;15.650;2023-08-08T08:07:13;98302.25;;;18.16;52.57
59194;BME280;44967;48.598;15.650;2023-08-08T08:09:39;98312.84;;;18.75;51.64
59194;BME280;44967;48.598;15.650;2023-08-08T08:12:08;98318.38;;;18.72;50.70
59194;BME280;44967;48.598;15.650;2023-08-08T08:14:34;98313.47;;;18.93;51.33
59194;BME280;44967;48.598;15.650;2023-08-08T08:17:00;98310.69;;;18.95;51.13
59194;BME280;44967;48.598;15.650;2023-08-08T08:19:25;98315.03;;;18.83;52.35
59194;BME280;44967;48.598;15.650;2023-08-08T08:21:51;98314.38;;;18.79;52.51
59194;BME280;44967;48.598;15.650;2023-08-08T08:24:17;98315.13;;;18.96;51.65
59194;BME280;44967;48.598;15.650;2023-08-08T08:26:42;98305.66;;;19.85;49.06
59194;BME280;44967;48.598;15.650;2023-08-08T08:29:08;98311.06;;;20.10;48.85
59194;BME280;44967;48.598;15.650;2023-08-08T08:31:34;98306.31;;;20.01;49.50
59194;BME280;44967;48.598;15.650;2023-08-08T08:33:59;98307.34;;;19.46;49.73
59194;BME280;44967;48.598;15.650;2023-08-08T08:36:25;98305.81;;;19.01;51.49
59194;BME280;44967;48.598;15.650;2023-08-08T08:38:51;98311.06;;;19.03;51.14
59194;BME280;44967;48.598;15.650;2023-08-08T08:41:18;98306.38;;;20.51;48.84
59194;BME280;44967;48.598;15.650;2023-08-08T08:43:45;98301.69;;;21.04;46.94
59194;BME280;44967;48.598;15.650;2023-08-08T08:46:11;98290.84;;;21.42;45.90
59194;BME280;44967;48.598;15.650;2023-08-08T08:48:40;98290.75;;;21.43;45.89
59194;BME280;44967;48.598;15.650;2023-08-08T08:51:06;98291.31;;;22.18;44.91
59194;BME280;44967;48.598;15.650;2023-08-08T08:53:32;98296.03;;;22.03;44.77
59194;BME280;44967;48.598;15.650;2023-08-08T08:55:57;98290.72;;;22.48;44.62
59194;BME280;44967;48.598;15.650;2023-08-08T08:58:24;98289.28;;;22.66;43.53
59194;BME280;44967;48.598;15.650;2023-08-08T09:00:51;98286.94;;;22.39;43.73
59194;BME280;44967;48.598;15.650;2023-08-08T09:03:17;98292.50;;;23.05;42.15
59194;BME280;44967;48.598;15.650;2023-08-08T09:05:43;98271.84;;;23.80;39.80
59194;BME280;44967;48.598;15.650;2023-08-08T09:08:10;98276.41;;;24.41;38.65
59194;BME280;44967;48.598;15.650;2023-08-08T09:10:37;98280.03;;;24.82;38.28
59194;BME280;44967;48.598;15.650;2023-08-08T09:13:03;98282.03;;;25.10;35.03
59194;BME280;44967;48.598;15.650;2023-08-08T09:15:32;98274.47;;;25.54;36.07
59194;BME280;44967;48.598;15.650;2023-08-08T09:17:58;98288.56;;;24.26;37.16
59194;BME280;44967;48.598;15.650;2023-08-08T09:20:25;98280.22;;;23.23;38.44
59194;BME280;44967;48.598;15.650;2023-08-08T09:22:53;98283.09;;;21.37;42.02
59194;BME280;44967;48.598;15.650;2023-08-08T09:25:19;98287.25;;;20.68;45.18
59194;BME280;44967;48.598;15.650;2023-08-08T09:27:44;98274.84;;;20.30;47.34
59194;BME280;44967;48.598;15.650;2023-08-08T09:30:11;98276.19;;;20.22;46.68
59194;BME280;44967;48.598;15.650;2023-08-08T09:32:37;98269.81;;;19.86;48.42
59194;BME280;44967;48.598;15.650;2023-08-08T09:35:04;98270.44;;;19.76;47.44
59194;BME280;44967;48.598;15.650;2023-08-08T09:37:34;98266.75;;;20.17;48.03
59194;BME280;44967;48.598;15.650;2023-08-08T09:40:01;98259.28;;;21.56;44.02
59194;BME280;44967;48.598;15.650;2023-08-08T09:42:29;98257.78;;;21.52;44.64
59194;BME280;44967;48.598;15.650;2023-08-08T09:44:59;98265.03;;;21.15;45.60
59194;BME280;44967;48.598;15.650;2023-08-08T09:47:26;98255.16;;;20.54;45.32
59194;BME280;44967;48.598;15.650;2023-08-08T09:50:00;98264.16;;;20.15;47.19
59194;BME280;44967;48.598;15.650;2023-08-08T09:52:27;98259.72;;;19.89;47.07
59194;BME280;44967;48.598;15.650;2023-08-08T09:54:54;98254.56;;;20.75;46.80
59194;BME280;44967;48.598;15.650;2023-08-08T09:57:25;98252.91;;;20.48;47.51
59194;BME280;44967;48.598;15.650;2023-08-08T09:59:51;98259.59;;;21.76;44.35
59194;BME280;44967;48.598;15.650;2023-08-08T10:02:18;98248.03;;;22.77;42.35
59194;BME280;44967;48.598;15.650;2023-08-08T10:04:45;98248.38;;;23.60;39.43
59194;BME280;44967;48.598;15.650;2023-08-08T10:07:11;98242.53;;;23.43;39.95
59194;BME280;44967;48.598;15.650;2023-08-08T10:09:37;98244.69;;;22.18;40.26
59194;BME280;44967;48.598;15.650;2023-08-08T10:12:05;98247.47;;;21.46;43.77
59194;BME280;44967;48.598;15.650;2023-08-08T10:14:35;98251.63;;;20.90;45.34
59194;BME280;44967;48.598;15.650;2023-08-08T10:17:05;98240.31;;;21.58;42.24
59194;BME280;44967;48.598;15.650;2023-08-08T10:19:31;98238.84;;;21.30;43.81
59194;BME280;44967;48.598;15.650;2023-08-08T10:22:03;98233.44;;;21.54;44.19
59194;BME280;44967;48.598;15.650;2023-08-08T10:24:36;98237.97;;;22.23;39.39
59194;BME280;44967;48.598;15.650;2023-08-08T10:27:03;98232.47;;;23.02;41.02
59194;BME280;44967;48.598;15.650;2023-08-08T10:29:33;98224.00;;;22.96;38.99
59194;BME280;44967;48.598;15.650;2023-08-08T10:32:04;98218.38;;;23.42;38.88
59194;BME280;44967;48.598;15.650;2023-08-08T10:34:43;98224.28;;;23.36;37.82
59194;BME280;44967;48.598;15.650;2023-08-08T10:37:12;98218.41;;;23.31;38.01
59194;BME280;44967;48.598;15.650;2023-08-08T10:39:53;98222.78;;;22.33;41.04
59194;BME280;44967;48.598;15.650;2023-08-08T10:42:20;98224.19;;;21.58;39.38
59194;BME280;44967;48.598;15.650;2023-08-08T10:44:54;98216.94;;;21.24;40.60
59194;BME280;44967;48.598;15.650;2023-08-08T10:47:22;98212.56;;;21.57;41.34
59194;BME280;44967;48.598;15.650;2023-08-08T10:50:15;98210.69;;;21.82;41.86
59194;BME280;44967;48.598;15.650;2023-08-08T11:00:24;98226.19;;;20.34;44.48
59194;BME280;44967;48.598;15.650;2023-08-08T11:02:51;98211.69;;;20.37;45.23
59194;BME280;44967;48.598;15.650;2023-08-08T11:05:17;98220.94;;;20.33;43.38
59194;BME280;44967;48.598;15.650;2023-08-08T11:07:43;98213.19;;;20.53;43.56
59194;BME280;44967;48.598;15.650;2023-08-08T11:10:09;98200.84;;;21.11;41.44
59194;BME280;44967;48.598;15.650;2023-08-08T11:12:36;98204.81;;;21.18;39.29
59194;BME280;44967;48.598;15.650;2023-08-08T11:15:02;98205.69;;;21.06;40.40
59194;BME280;44967;48.598;15.650;2023-08-08T11:17:27;98204.16;;;21.62;39.32
59194;BME280;44967;48.598;15.650;2023-08-08T11:19:54;98193.78;;;22.03;37.82
59194;BME280;44967;48.598;15.650;2023-08-08T11:22:23;98199.53;;;22.21;38.48
59194;BME280;44967;48.598;15.650;2023-08-08T11:24:52;98205.88;;;22.65;37.70
59194;BME280;44967;48.598;15.650;2023-08-08T11:27:18;98183.88;;;22.82;37.08
59194;BME280;44967;48.598;15.650;2023-08-08T11:29:50;98183.84;;;22.93;37.10
59194;BME280;44967;48.598;15.650;2023-08-08T11:32:16;98188.47;;;23.02;37.86
59194;BME280;44967;48.598;15.650;2023-08-08T11:34:42;98190.88;;;23.16;37.23
59194;BME280;44967;48.598;15.650;2023-08-08T11:37:09;98184.72;;;23.25;36.87
59194;BME280;44967;48.598;15.650;2023-08-08T11:39:36;98181.25;;;23.34;37.41
59194;BME280;44967;48.598;15.650;2023-08-08T11:42:02;98171.13;;;23.16;36.43
59194;BME280;44967;48.598;15.650;2023-08-08T11:44:29;98199.34;;;23.12;38.36
59194;BME280;44967;48.598;15.650;2023-08-08T11:46:54;98196.00;;;22.32;37.78
59194;BME280;44967;48.598;15.650;2023-08-08T11:49:20;98200.63;;;22.19;37.68
59194;BME280;44967;48.598;15.650;2023-08-08T11:51:46;98193.53;;;22.06;37.64
59194;BME280;44967;48.598;15.650;2023-08-08T11:54:12;98180.19;;;21.70;38.97
59194;BME280;44967;48.598;15.650;2023-08-08T11:56:38;98191.06;;;21.92;40.12
59194;BME280;44967;48.598;15.650;2023-08-08T11:59:05;98188.09;;;21.84;39.03
59194;BME280;44967;48.598;15.650;2023-08-08T12:01:33;98186.97;;;21.87;40.72
59194;BME280;44967;48.598;15.650;2023-08-08T12:04:05;98182.81;;;21.83;40.13
59194;BME280;44967;48.598;15.650;2023-08-08T12:06:31;98172.25;;;22.03;39.16
59194;BME280;44967;48.598;15.650;2023-08-08T12:08:56;98175.31;;;22.43;40.38
59194;BME280;44967;48.598;15.650;2023-08-08T12:11:22;98164.63;;;22.53;39.19
59194;BME280;44967;48.598;15.650;2023-08-08T12:13:47;98155.69;;;22.52;38.98
59194;BME280;44967;48.598;15.650;2023-08-08T12:16:14;98172.38;;;22.69;38.68
59194;BME280;44967;48.598;15.650;2023-08-08T12:18:40;98152.00;;;22.65;38.98
59194;BME280;44967;48.598;15.650;2023-08-08T12:21:07;98160.22;;;22.85;40.66
59194;BME280;44967;48.598;15.650;2023-08-08T12:23:34;98146.81;;;23.06;37.89
59194;BME280;44967;48.598;15.650;2023-08-08T12:26:03;98146.50;;;23.20;38.13
59194;BME280;44967;48.598;15.650;2023-08-08T12:28:30;98157.28;;;23.20;37.49
59194;BME280;44967;48.598;15.650;2023-08-08T12:30:56;98148.44;;;22.64;36.99
59194;BME280;44967;48.598;15.650;2023-08-08T12:33:23;98145.94;;;22.51;38.12
59194;BME280;44967;48.598;15.650;2023-08-08T12:35:48;98150.81;;;22.58;38.71
59194;BME280;44967;48.598;15.650;2023-08-08T12:38:14;98150.31;;;22.52;40.10
59194;BME280;44967;48.598;15.650;2023-08-08T12:40:41;98147.66;;;22.08;39.85
59194;BME280;44967;48.598;15.650;2023-08-08T12:43:06;98159.00;;;22.00;40.02
59194;BME280;44967;48.598;15.650;2023-08-08T12:45:32;98151.25;;;21.85;39.77
59194;BME280;44967;48.598;15.650;2023-08-08T12:47:58;98153.56;;;21.89;39.84
59194;BME280;44967;48.598;15.650;2023-08-08T12:50:24;98161.50;;;21.69;40.03
59194;BME280;44967;48.598;15.650;2023-08-08T12:52:50;98159.38;;;21.61;41.10
59194;BME280;44967;48.598;15.650;2023-08-08T12:55:16;98150.34;;;21.03;39.87
59194;BME280;44967;48.598;15.650;2023-08-08T12:57:45;98156.31;;;20.96;41.23
59194;BME280;44967;48.598;15.650;2023-08-08T13:00:11;98156.59;;;20.80;41.75